Time;durP1;ratioP1;P1;durP2;ratioP2;P2;SDS_P1;SDS_P2;PMS_P1;PMS_P2;Temp;Humidity;BMP_temperature;BMP_pressure;BME280_temperature;BME280_humidity;BME280_pressure;Samples;Min_cycle;Max_cycle;Signal;HPM_P1;HPM_P2
2023/10/18 00:01:57;;;;;;;5.37;2.53;;;;;;;-145.14;100.00;70583.66;4985231;28;20618;-71
2023/10/18 00:04:23;;;;;;;3.47;2.07;;;;;;;-145.14;100.00;70583.66;4975787;28;20487;-72
2023/10/18 00:06:49;;;;;;;4.20;2.30;;;;;;;-145.14;100.00;70583.66;4990804;28;20445;-72
2023/10/18 00:12:00;;;;;;;6.50;2.93;;;;;;;-145.14;100.00;70583.66;4986535;28;20199;-72
2023/10/18 00:14:26;;;;;;;5.27;2.90;;;;;;;-145.14;100.00;70583.66;4987218;28;20439;-72
2023/10/18 00:16:51;;;;;;;4.87;2.60;;;;;;;-145.14;100.00;70583.66;4987734;28;20435;-72
2023/10/18 00:19:17;;;;;;;5.20;2.83;;;;;;;-145.14;100.00;70583.66;4985883;28;20288;-72
2023/10/18 00:21:42;;;;;;;7.60;3.00;;;;;;;-145.14;100.00;70583.66;4981233;28;20205;-72
2023/10/18 00:24:09;;;;;;;3.90;2.30;;;;;;;-145.14;100.00;70583.66;4983937;28;20188;-73
2023/10/18 00:26:35;;;;;;;5.77;2.80;;;;;;;-145.14;100.00;70583.66;4989119;28;20267;-72
2023/10/18 00:29:00;;;;;;;4.63;2.50;;;;;;;-145.14;100.00;70583.66;4987290;28;20464;-72
2023/10/18 00:31:27;;;;;;;4.70;2.33;;;;;;;-145.14;100.00;70583.66;4983776;28;20197;-72
2023/10/18 00:33:53;;;;;;;4.50;2.20;;;;;;;-145.14;100.00;70583.66;5009268;22;20321;-76
2023/10/18 00:36:19;;;;;;;4.87;2.47;;;;;;;-145.14;100.00;70583.66;4966200;28;20501;-75
2023/10/18 00:38:45;;;;;;;3.30;2.00;;;;;;;-145.14;100.00;70583.66;4966163;28;20469;-79
2023/10/18 00:41:22;;;;;;;4.03;1.93;;;;;;;-145.14;100.00;70583.66;4964314;28;20191;-77
2023/10/18 00:43:50;;;;;;;5.37;2.40;;;;;;;-145.14;100.00;70583.66;4964614;28;20429;-75
2023/10/18 00:46:16;;;;;;;3.37;2.10;;;;;;;-145.14;100.00;70583.66;4962474;28;20442;-75
2023/10/18 00:48:44;;;;;;;5.23;2.17;;;;;;;-145.14;100.00;70583.66;4961925;28;20983;-75
2023/10/18 00:51:18;;;;;;;3.93;1.67;;;;;;;-145.14;100.00;70583.66;4965105;28;20814;-76
2023/10/18 00:53:46;;;;;;;4.53;2.27;;;;;;;-145.14;100.00;70583.66;4963205;28;20548;-76
2023/10/18 00:56:13;;;;;;;3.77;2.10;;;;;;;-145.14;100.00;70583.66;4966472;28;20524;-75
2023/10/18 00:58:41;;;;;;;4.07;2.13;;;;;;;-145.14;100.00;70583.66;4960518;28;20557;-76
2023/10/18 01:01:09;;;;;;;3.87;2.00;;;;;;;-145.14;100.00;70583.66;4963009;28;20443;-75
2023/10/18 01:03:42;;;;;;;4.67;1.87;;;;;;;-145.14;100.00;70583.66;4962688;28;20445;-76
2023/10/18 01:06:17;;;;;;;4.70;2.00;;;;;;;-145.14;100.00;70583.66;4964582;28;20445;-76
2023/10/18 01:08:45;;;;;;;4.40;2.07;;;;;;;-145.14;100.00;70583.66;4959854;28;20461;-76
2023/10/18 01:11:11;;;;;;;5.53;1.80;;;;;;;-145.14;100.00;70583.66;4967443;28;20445;-76
2023/10/18 01:13:42;;;;;;;3.30;2.03;;;;;;;-145.14;100.00;70583.66;4963360;28;20480;-75
2023/10/18 01:16:20;;;;;;;4.27;2.23;;;;;;;-145.14;100.00;70583.66;4963328;28;20468;-76
2023/10/18 01:18:47;;;;;;;3.40;1.90;;;;;;;-145.14;100.00;70583.66;4963575;28;21026;-76
2023/10/18 01:21:19;;;;;;;4.40;1.90;;;;;;;-145.14;100.00;70583.66;4961719;28;20443;-75
2023/10/18 01:23:49;;;;;;;4.10;1.87;;;;;;;-145.14;100.00;70583.66;4964126;28;20446;-75
2023/10/18 01:26:15;;;;;;;3.83;1.60;;;;;;;-145.14;100.00;70583.66;4962779;28;20536;-76
2023/10/18 01:28:41;;;;;;;4.37;1.80;;;;;;;-145.14;100.00;70583.66;4960978;28;20822;-75
2023/10/18 01:31:07;;;;;;;5.50;1.97;;;;;;;-145.14;100.00;70583.66;4959275;28;20904;-75
2023/10/18 01:33:43;;;;;;;3.77;2.50;;;;;;;-145.14;100.00;70583.66;4964824;28;20476;-76
2023/10/18 01:36:12;;;;;;;3.60;2.37;;;;;;;-145.14;100.00;70583.66;4968765;28;20421;-76
2023/10/18 01:38:39;;;;;;;4.20;2.23;;;;;;;-145.14;100.00;70583.66;4959329;28;20455;-75
2023/10/18 01:41:25;;;;;;;5.50;2.07;;;;;;;-145.14;100.00;70583.66;4964438;28;20448;-76
2023/10/18 01:43:51;;;;;;;5.17;2.77;;;;;;;-145.14;100.00;70583.66;4963940;28;20438;-76
2023/10/18 01:46:17;;;;;;;5.57;2.47;;;;;;;-145.14;100.00;70583.66;4961810;28;20497;-78
2023/10/18 01:48:48;;;;;;;5.07;2.47;;;;;;;-145.14;100.00;70583.66;4960796;28;20461;-75
2023/10/18 01:51:14;;;;;;;3.97;2.20;;;;;;;-145.14;100.00;70583.66;4963070;28;20281;-75
2023/10/18 01:53:41;;;;;;;6.27;2.83;;;;;;;-145.14;100.00;70583.66;4959585;28;20553;-76
2023/10/18 01:56:07;;;;;;;4.37;2.30;;;;;;;-145.14;100.00;70583.66;4964716;28;20257;-76
2023/10/18 01:58:35;;;;;;;6.00;2.73;;;;;;;-145.14;100.00;70583.66;4963799;28;20461;-76
2023/10/18 02:01:08;;;;;;;3.77;2.20;;;;;;;-145.14;100.00;70583.66;4966078;28;20190;-77
2023/10/18 02:03:34;;;;;;;3.37;2.40;;;;;;;-145.14;100.00;70583.66;4962083;28;20900;-76
2023/10/18 02:06:05;;;;;;;3.60;2.60;;;;;;;-145.14;100.00;70583.66;4966284;28;20440;-76
2023/10/18 02:08:30;;;;;;;4.13;2.40;;;;;;;-145.14;100.00;70583.66;4964500;28;20471;-76
2023/10/18 02:10:56;;;;;;;3.60;2.30;;;;;;;-145.14;100.00;70583.66;4969764;28;20929;-76
2023/10/18 02:13:21;;;;;;;4.13;2.70;;;;;;;-145.14;100.00;70583.66;4965227;28;20222;-76
2023/10/18 02:15:48;;;;;;;5.97;3.33;;;;;;;-145.14;100.00;70583.66;4969259;28;20236;-76
2023/10/18 02:18:14;;;;;;;4.77;2.90;;;;;;;-145.14;100.00;70583.66;4969938;28;20305;-76
2023/10/18 02:20:50;;;;;;;3.80;2.20;;;;;;;-145.14;100.00;70583.66;4966762;28;20516;-76
2023/10/18 02:23:15;;;;;;;5.07;2.73;;;;;;;-145.14;100.00;70583.66;4964602;28;20436;-77
2023/10/18 02:28:22;;;;;;;4.83;2.50;;;;;;;-145.14;100.00;70583.66;4968572;28;20719;-76
2023/10/18 02:30:55;;;;;;;4.80;2.60;;;;;;;-145.14;100.00;70583.66;4964034;28;20293;-75
2023/10/18 02:33:26;;;;;;;4.63;2.67;;;;;;;-145.14;100.00;70583.66;4966460;28;20474;-77
2023/10/18 02:35:57;;;;;;;6.33;3.17;;;;;;;-145.14;100.00;70583.66;4969609;28;20434;-75
2023/10/18 02:38:23;;;;;;;5.50;2.93;;;;;;;-145.14;100.00;70583.66;4964260;28;20528;-75
2023/10/18 02:40:49;;;;;;;6.43;2.60;;;;;;;-145.14;100.00;70583.66;4961795;28;21030;-76
2023/10/18 02:43:14;;;;;;;5.23;2.67;;;;;;;-145.14;100.00;70583.66;4966219;28;20517;-76
2023/10/18 02:45:42;;;;;;;5.10;2.90;;;;;;;-145.14;100.00;70583.66;4969886;28;20196;-76
2023/10/18 02:48:13;;;;;;;5.30;2.70;;;;;;;-145.14;100.00;70583.66;4965699;28;20683;-77
2023/10/18 02:50:40;;;;;;;6.63;2.70;;;;;;;-145.14;100.00;70583.66;4964650;28;20472;-76
2023/10/18 02:53:06;;;;;;;6.43;3.30;;;;;;;-145.14;100.00;70583.66;4967125;28;20480;-75
2023/10/18 02:55:33;;;;;;;6.67;3.43;;;;;;;-145.14;100.00;70583.66;4966355;28;20449;-76
2023/10/18 02:57:59;;;;;;;4.40;2.87;;;;;;;-145.14;100.00;70583.66;4965366;28;20533;-76
2023/10/18 03:00:25;;;;;;;5.43;2.93;;;;;;;-145.14;100.00;70583.66;4963912;28;20442;-76
2023/10/18 03:02:50;;;;;;;5.00;3.07;;;;;;;-145.14;100.00;70583.66;4963814;28;21023;-76
2023/10/18 03:05:20;;;;;;;8.60;2.77;;;;;;;-145.14;100.00;70583.66;4965565;28;20198;-76
2023/10/18 03:07:45;;;;;;;4.17;2.87;;;;;;;-145.14;100.00;70583.66;4963972;28;20199;-77
2023/10/18 03:10:20;;;;;;;5.67;3.33;;;;;;;-145.14;100.00;70583.66;4964449;28;20437;-76
2023/10/18 03:12:45;;;;;;;4.30;3.00;;;;;;;-145.14;100.00;70583.66;4965177;28;20223;-76
2023/10/18 03:15:17;;;;;;;4.17;2.90;;;;;;;-145.14;100.00;70583.66;4964979;28;20579;-76
2023/10/18 03:17:43;;;;;;;3.90;2.80;;;;;;;-145.14;100.00;70583.66;4969222;28;20225;-77
2023/10/18 03:20:20;;;;;;;10.00;3.60;;;;;;;-145.14;100.00;70583.66;4959722;28;20461;-78
2023/10/18 03:22:48;;;;;;;4.00;2.73;;;;;;;-145.14;100.00;70583.66;4966510;28;20453;-76
2023/10/18 03:25:16;;;;;;;4.70;3.00;;;;;;;-145.14;100.00;70583.66;4966778;28;20904;-76
2023/10/18 03:27:49;;;;;;;5.30;3.00;;;;;;;-145.14;100.00;70583.66;4968347;28;20497;-77
2023/10/18 03:30:19;;;;;;;4.40;2.93;;;;;;;-145.14;100.00;70583.66;4959872;28;20996;-77
2023/10/18 03:32:50;;;;;;;6.23;3.00;;;;;;;-145.14;100.00;70583.66;4959448;28;20525;-77
2023/10/18 03:35:21;;;;;;;5.20;2.87;;;;;;;-145.14;100.00;70583.66;4961838;28;20465;-77
2023/10/18 03:37:47;;;;;;;8.13;3.27;;;;;;;-145.14;100.00;70583.66;4966125;28;20440;-77
2023/10/18 03:40:26;;;;;;;6.50;3.63;;;;;;;-145.14;100.00;70583.66;4963001;28;20917;-76
2023/10/18 03:42:53;;;;;;;6.27;3.43;;;;;;;-145.14;100.00;70583.66;4967673;28;20182;-75
2023/10/18 03:45:22;;;;;;;6.60;3.80;;;;;;;-145.14;100.00;70583.66;4966703;28;20491;-75
2023/10/18 03:48:05;;;;;;;5.40;3.30;;;;;;;-145.14;100.00;70583.66;4961459;28;20519;-77
2023/10/18 03:50:47;;;;;;;5.97;3.43;;;;;;;-145.14;100.00;70583.66;4962167;28;20434;-75
2023/10/18 03:53:13;;;;;;;6.60;3.80;;;;;;;-145.14;100.00;70583.66;4963670;28;20461;-75
2023/10/18 03:55:39;;;;;;;6.57;3.60;;;;;;;-145.14;100.00;70583.66;4961335;28;20442;-75
2023/10/18 03:58:05;;;;;;;5.10;3.27;;;;;;;-145.14;100.00;70583.66;4963778;28;20472;-75
2023/10/18 04:00:46;;;;;;;10.77;3.50;;;;;;;-145.14;100.00;70583.66;4965061;28;20437;-75
2023/10/18 04:03:12;;;;;;;6.30;3.70;;;;;;;-145.14;100.00;70583.66;4960618;28;20202;-76
2023/10/18 04:05:49;;;;;;;7.03;4.20;;;;;;;-145.14;100.00;70583.66;4961534;28;20485;-76
2023/10/18 04:08:18;;;;;;;5.70;3.90;;;;;;;-145.14;100.00;70583.66;4964601;28;20205;-76
2023/10/18 04:10:45;;;;;;;8.63;3.87;;;;;;;-145.14;100.00;70583.66;4967125;28;20469;-75
2023/10/18 04:13:14;;;;;;;8.37;4.10;;;;;;;-145.14;100.00;70583.66;4962010;28;20486;-77
2023/10/18 04:15:46;;;;;;;6.43;4.00;;;;;;;-145.14;100.00;70583.66;4962505;28;20445;-75
2023/10/18 04:18:12;;;;;;;6.93;4.57;;;;;;;-145.14;100.00;70583.66;4964626;28;20470;-75
2023/10/18 04:20:42;;;;;;;6.60;4.47;;;;;;;-145.14;100.00;70583.66;4961738;28;21155;-75
2023/10/18 04:26:10;;;;;;;10.03;5.17;;;;;;;-145.14;100.00;70583.66;4956295;28;20512;-75
2023/10/18 04:28:39;;;;;;;10.47;6.00;;;;;;;-145.14;100.00;70583.66;4963921;28;20541;-76
2023/10/18 04:31:12;;;;;;;8.60;5.70;;;;;;;-145.14;100.00;70583.66;4963604;28;20468;-75
2023/10/18 04:36:11;;;;;;;9.10;5.70;;;;;;;-145.14;100.00;70583.66;4965866;28;20452;-75
2023/10/18 04:38:43;;;;;;;8.90;6.37;;;;;;;-145.14;100.00;70583.66;4964103;28;20265;-75
2023/10/18 04:41:10;;;;;;;8.17;5.93;;;;;;;-145.14;100.00;70583.66;4965821;28;20468;-75
2023/10/18 04:43:37;;;;;;;9.10;6.40;;;;;;;-145.14;100.00;70583.66;4964412;28;20436;-75
2023/10/18 04:51:33;;;;;;;9.90;6.90;;;;;;;-145.14;100.00;70583.66;4957967;28;20474;-75
2023/10/18 04:54:15;;;;;;;10.70;6.20;;;;;;;-145.14;100.00;70583.66;4966002;28;20241;-75
2023/10/18 04:56:44;;;;;;;10.30;6.97;;;;;;;-145.14;100.00;70583.66;4964162;28;20445;-76
2023/10/18 04:59:11;;;;;;;;;;;;;;;;;;;;;
2023/10/18 05:04:35;;;;;;;9.17;6.33;;;;;;;-145.14;100.00;70583.66;4961025;28;20795;-76
2023/10/18 05:09:45;;;;;;;10.60;7.00;;;;;;;-145.14;100.00;70583.66;4964734;28;20205;-75
2023/10/18 05:15:09;;;;;;;14.30;6.77;;;;;;;-145.14;100.00;70583.66;4960977;28;20430;-75
2023/10/18 05:17:44;;;;;;;10.90;6.93;;;;;;;-145.14;100.00;70583.66;4961485;28;20418;-75
2023/10/18 05:22:45;;;;;;;9.27;7.03;;;;;;;-145.14;100.00;70583.66;4961542;28;20454;-78
2023/10/18 05:28:14;;;;;;;9.23;7.37;;;;;;;-145.14;100.00;70583.66;4964098;28;20923;-75
2023/10/18 05:43:58;;;;;;;11.57;7.70;;;;;;;-145.14;100.00;70583.66;4970427;28;20828;-77
2023/10/18 05:46:33;;;;;;;12.27;8.40;;;;;;;-145.14;100.00;70583.66;4961668;28;20437;-74
2023/10/18 05:49:13;;;;;;;12.40;8.27;;;;;;;-145.14;100.00;70583.66;4980330;28;20469;-75
2023/10/18 05:51:38;;;;;;;12.00;8.17;;;;;;;-145.14;100.00;70583.66;4970140;28;20850;-75
2023/10/18 05:54:05;;;;;;;12.37;8.00;;;;;;;-145.14;100.00;70583.66;4972564;28;20527;-74
2023/10/18 05:56:32;;;;;;;12.50;8.20;;;;;;;-145.14;100.00;70583.66;4966247;28;20856;-75
2023/10/18 06:01:46;;;;;;;13.77;9.67;;;;;;;-145.14;100.00;70583.66;4966339;28;20944;-77
2023/10/18 06:04:13;;;;;;;14.33;9.27;;;;;;;-145.14;100.00;70583.66;4966330;28;20421;-75
2023/10/18 06:06:39;;;;;;;13.60;9.00;;;;;;;-145.14;100.00;70583.66;4963994;28;20418;-74
2023/10/18 06:09:13;;;;;;;12.73;9.00;;;;;;;-145.14;100.00;70583.66;4967221;28;20445;-75
2023/10/18 06:11:39;;;;;;;14.37;9.70;;;;;;;-145.14;100.00;70583.66;4971552;28;20436;-75
2023/10/18 06:14:08;;;;;;;13.77;10.07;;;;;;;-145.14;100.00;70583.66;4972091;28;20527;-75
2023/10/18 06:16:34;;;;;;;11.93;8.83;;;;;;;-145.14;100.00;70583.66;4967859;28;20269;-75
2023/10/18 06:19:05;;;;;;;14.50;9.10;;;;;;;-145.14;100.00;70583.66;4965706;28;21051;-75
2023/10/18 06:21:36;;;;;;;13.87;9.40;;;;;;;-145.14;100.00;70583.66;4968136;28;20419;-75
2023/10/18 06:24:08;;;;;;;15.90;9.50;;;;;;;-145.14;100.00;70583.66;4966849;28;20433;-75
2023/10/18 06:26:34;;;;;;;12.90;8.40;;;;;;;-145.14;100.00;70583.66;4960900;28;20437;-75
2023/10/18 06:29:11;;;;;;;12.60;8.40;;;;;;;-145.14;100.00;70583.66;4962910;28;20509;-76
2023/10/18 06:31:42;;;;;;;17.23;10.30;;;;;;;-145.14;100.00;70583.66;4973311;28;20882;-75
2023/10/18 06:34:15;;;;;;;16.23;9.50;;;;;;;-145.14;100.00;70583.66;4973023;28;20948;-75
2023/10/18 06:36:41;;;;;;;13.63;8.40;;;;;;;-145.14;100.00;70583.66;4962771;28;20434;-75
2023/10/18 06:39:06;;;;;;;13.07;9.00;;;;;;;-145.14;100.00;70583.66;4959982;28;21209;-76
2023/10/18 06:41:32;;;;;;;16.60;9.33;;;;;;;-145.14;100.00;70583.66;4963821;28;20422;-75
2023/10/18 06:44:00;;;;;;;13.07;8.27;;;;;;;-145.14;100.00;70583.66;4965614;28;20561;-75
2023/10/18 06:46:26;;;;;;;14.00;8.87;;;;;;;-145.14;100.00;70583.66;4968042;28;20217;-75
2023/10/18 06:48:54;;;;;;;10.80;8.17;;;;;;;-145.14;100.00;70583.66;4969353;28;20461;-75
2023/10/18 06:51:30;;;;;;;16.13;9.13;;;;;;;-145.14;100.00;70583.66;4967647;28;20616;-75
2023/10/18 06:54:05;;;;;;;11.80;8.37;;;;;;;-145.14;100.00;70583.66;4965871;28;20473;-75
2023/10/18 06:56:39;;;;;;;11.93;8.40;;;;;;;-145.14;100.00;70583.66;4966123;28;20864;-75
2023/10/18 06:59:07;;;;;;;13.33;8.87;;;;;;;-145.14;100.00;70583.66;4968836;28;20445;-75
2023/10/18 07:02:26;;;;;;;12.93;9.17;;;;;;;-145.14;100.00;70583.66;4964322;28;20430;-75
2023/10/18 07:04:28;;;;;;;12.10;9.23;;;;;;;-145.14;100.00;70583.66;4961945;28;20426;-75
2023/10/18 07:06:57;;;;;;;13.53;8.57;;;;;;;-145.14;100.00;70583.66;4971075;28;20434;-74
2023/10/18 07:09:25;;;;;;;12.83;8.80;;;;;;;-145.14;100.00;70583.66;4966372;28;20606;-74
2023/10/18 07:11:57;;;;;;;11.93;8.37;;;;;;;-145.14;100.00;70583.66;4963823;28;20434;-75
2023/10/18 07:14:26;;;;;;;13.10;8.00;;;;;;;-145.14;100.00;70583.66;4967425;28;20454;-75
2023/10/18 07:16:56;;;;;;;10.60;7.50;;;;;;;-145.14;100.00;70583.66;4965513;28;20425;-75
2023/10/18 07:19:26;;;;;;;11.67;7.37;;;;;;;-145.14;100.00;70583.66;4967893;28;20437;-75
2023/10/18 07:22:06;;;;;;;11.70;8.03;;;;;;;-145.14;100.00;70583.66;4968175;28;20485;-76
2023/10/18 07:24:32;;;;;;;10.23;7.57;;;;;;;-145.14;100.00;70583.66;4963336;28;20417;-75
2023/10/18 07:26:59;;;;;;;11.13;7.93;;;;;;;-145.14;100.00;70583.66;4965727;28;20446;-74
2023/10/18 07:29:27;;;;;;;13.40;8.37;;;;;;;-145.14;100.00;70583.66;4966499;28;20818;-76
2023/10/18 07:31:53;;;;;;;18.37;8.00;;;;;;;-145.14;100.00;70583.66;4964580;28;20438;-75
2023/10/18 07:34:25;;;;;;;10.33;8.17;;;;;;;-145.14;100.00;70583.66;4970269;28;20980;-75
2023/10/18 07:36:54;;;;;;;10.30;7.63;;;;;;;-145.14;100.00;70583.66;4964192;28;20789;-75
2023/10/18 07:39:24;;;;;;;14.63;7.90;;;;;;;-145.14;100.00;70583.66;4965077;28;20438;-74
2023/10/18 07:41:55;;;;;;;12.40;8.83;;;;;;;-145.14;100.00;70583.66;4968051;28;20430;-76
2023/10/18 07:44:20;;;;;;;12.20;8.20;;;;;;;-145.14;100.00;70583.66;4964691;28;20822;-75
2023/10/18 07:46:45;;;;;;;10.93;7.80;;;;;;;-145.14;100.00;70583.66;4961379;28;20433;-75
2023/10/18 07:49:14;;;;;;;15.30;7.40;;;;;;;-145.14;100.00;70583.66;4965870;28;20209;-75
2023/10/18 07:51:50;;;;;;;11.40;8.20;;;;;;;-145.14;100.00;70583.66;4963882;28;20637;-75
2023/10/18 07:54:20;;;;;;;10.47;7.70;;;;;;;-145.14;100.00;70583.66;4968102;28;21143;-76
2023/10/18 07:56:54;;;;;;;11.83;8.37;;;;;;;-145.14;100.00;70583.66;4962350;28;20575;-75
2023/10/18 07:59:27;;;;;;;10.90;7.83;;;;;;;-145.14;100.00;70583.66;4960397;28;20504;-75
2023/10/18 08:04:42;;;;;;;8.90;7.03;;;;;;;-145.14;100.00;70583.66;4966305;28;20461;-75
2023/10/18 08:07:10;;;;;;;11.17;7.90;;;;;;;-145.14;100.00;70583.66;4967408;28;20422;-75
2023/10/18 08:09:39;;;;;;;8.17;6.53;;;;;;;-145.14;100.00;70583.66;4961329;28;20845;-75
2023/10/18 08:12:06;;;;;;;11.63;7.43;;;;;;;-145.14;100.00;70583.66;4967391;28;20417;-75
2023/10/18 08:14:35;;;;;;;10.03;7.23;;;;;;;-145.14;100.00;70583.66;4966974;28;20545;-74
2023/10/18 08:17:12;;;;;;;11.07;7.70;;;;;;;-145.14;100.00;70583.66;4972295;28;20437;-75
2023/10/18 08:19:44;;;;;;;10.43;6.97;;;;;;;-145.14;100.00;70583.66;4965722;28;20437;-75
2023/10/18 08:24:36;;;;;;;8.80;6.83;;;;;;;-145.14;100.00;70583.66;4967409;28;20426;-75
2023/10/18 08:27:09;;;;;;;9.17;6.47;;;;;;;-145.14;100.00;70583.66;4967504;28;20571;-77
2023/10/18 08:29:38;;;;;;;8.63;6.40;;;;;;;-145.14;100.00;70583.66;4961684;28;20441;-75
2023/10/18 08:32:09;;;;;;;8.50;6.40;;;;;;;-145.14;100.00;70583.66;4966379;28;20413;-75
2023/10/18 08:34:35;;;;;;;8.80;6.00;;;;;;;-145.14;100.00;70583.66;4965454;28;20474;-75
2023/10/18 08:37:10;;;;;;;8.10;5.77;;;;;;;-145.14;100.00;70583.66;4962420;28;20894;-75
2023/10/18 08:39:39;;;;;;;8.87;6.17;;;;;;;-145.14;100.00;70583.66;4965788;28;20480;-75
2023/10/18 08:42:14;;;;;;;9.40;6.20;;;;;;;-145.14;100.00;70583.66;4966039;28;20580;-75
2023/10/18 08:44:40;;;;;;;12.30;6.70;;;;;;;-145.14;100.00;70583.66;4969490;28;20509;-74
2023/10/18 08:49:59;;;;;;;9.50;6.40;;;;;;;-145.14;100.00;70583.66;4962718;28;20495;-75
2023/10/18 08:52:25;;;;;;;9.13;6.07;;;;;;;-145.14;100.00;70583.66;4958391;28;20945;-74
2023/10/18 08:54:53;;;;;;;7.77;5.70;;;;;;;-145.14;100.00;70583.66;4965364;28;20460;-77
2023/10/18 08:57:35;;;;;;;9.27;6.10;;;;;;;-145.14;100.00;70583.66;4964025;28;20435;-75
2023/10/18 09:02:51;;;;;;;7.73;5.40;;;;;;;-145.14;100.00;70583.66;4966377;28;20425;-75
2023/10/18 09:05:23;;;;;;;6.50;5.30;;;;;;;-145.14;100.00;70583.66;4967234;28;21086;-76
2023/10/18 09:07:51;;;;;;;8.00;5.47;;;;;;;-145.14;100.00;70583.66;4967729;28;20457;-75
2023/10/18 09:16:11;;;;;;;7.20;5.37;;;;;;;-145.14;100.00;70583.66;4966185;28;20432;-75
2023/10/18 09:18:37;;;;;;;7.70;5.40;;;;;;;-145.14;100.00;70583.66;4960779;28;20471;-75
2023/10/18 09:23:40;;;;;;;7.13;5.20;;;;;;;-145.14;100.00;70583.66;4965263;28;21032;-75
2023/10/18 09:26:18;;;;;;;7.73;5.37;;;;;;;-145.14;100.00;70583.66;4959072;28;20441;-75
2023/10/18 09:28:44;;;;;;;7.93;5.53;;;;;;;-145.14;100.00;70583.66;4958320;28;20449;-77
2023/10/18 09:31:12;;;;;;;9.50;5.70;;;;;;;-145.14;100.00;70583.66;4966828;28;20459;-75
2023/10/18 09:36:23;;;;;;;8.20;5.30;;;;;;;-145.14;100.00;70583.66;4962059;28;20485;-75
2023/10/18 09:38:51;;;;;;;7.37;5.43;;;;;;;-145.14;100.00;70583.66;4964182;28;20542;-76
2023/10/18 09:41:17;;;;;;;7.63;5.40;;;;;;;-145.14;100.00;70583.66;4964786;28;20179;-76
2023/10/18 09:43:44;;;;;;;7.00;5.40;;;;;;;-145.14;100.00;70583.66;4966957;28;20508;-75
2023/10/18 09:46:13;;;;;;;7.13;5.27;;;;;;;-145.14;100.00;70583.66;4964436;28;21338;-75
2023/10/18 09:48:47;;;;;;;6.43;4.40;;;;;;;-145.14;100.00;70583.66;4960921;28;20438;-75
2023/10/18 09:51:15;;;;;;;7.40;5.97;;;;;;;-145.14;100.00;70583.66;4965499;28;21120;-75
2023/10/18 09:53:48;;;;;;;7.53;5.70;;;;;;;-145.14;100.00;70583.66;4966492;28;20556;-75
2023/10/18 09:56:18;;;;;;;6.87;5.27;;;;;;;-145.14;100.00;70583.66;4959958;28;20441;-75
2023/10/18 09:58:48;;;;;;;7.80;5.07;;;;;;;-145.14;100.00;70583.66;4959303;28;20522;-74
2023/10/18 10:01:25;;;;;;;6.70;5.17;;;;;;;-145.14;100.00;70583.66;4959621;28;20813;-73
2023/10/18 10:03:56;;;;;;;7.10;6.00;;;;;;;-145.14;100.00;70583.66;4964656;28;20480;-73
2023/10/18 10:06:28;;;;;;;9.17;5.57;;;;;;;-145.14;100.00;70583.66;4966049;28;20430;-73
2023/10/18 10:08:56;;;;;;;6.60;4.90;;;;;;;-145.14;100.00;70583.66;4964072;28;20446;-72
2023/10/18 10:11:29;;;;;;;6.53;4.60;;;;;;;-145.14;100.00;70583.66;4962334;28;20434;-73
2023/10/18 10:13:58;;;;;;;7.77;5.43;;;;;;;-145.14;100.00;70583.66;4969417;28;20907;-73
2023/10/18 10:16:25;;;;;;;7.53;5.00;;;;;;;-145.14;100.00;70583.66;4961281;28;20430;-73
2023/10/18 10:18:53;;;;;;;7.47;5.27;;;;;;;-145.14;100.00;70583.66;4959575;28;20498;-73
2023/10/18 10:21:23;;;;;;;8.57;5.53;;;;;;;-145.14;100.00;70583.66;4959670;28;20430;-73
2023/10/18 10:23:58;;;;;;;6.13;4.80;;;;;;;-145.14;100.00;70583.66;4963605;28;20801;-75
2023/10/18 10:26:28;;;;;;;5.93;4.70;;;;;;;-145.14;100.00;70583.66;4966928;28;20437;-73
2023/10/18 10:31:57;;;;;;;8.47;4.67;;;;;;;-145.14;100.00;70583.66;4964237;28;20775;-73
2023/10/18 10:34:26;;;;;;;6.57;4.60;;;;;;;-145.14;100.00;70583.66;4964594;28;21034;-73
2023/10/18 10:36:53;;;;;;;7.70;5.07;;;;;;;-145.14;100.00;70583.66;4967111;28;20438;-73
2023/10/18 10:39:30;;;;;;;6.40;5.13;;;;;;;-145.14;100.00;70583.66;4970244;28;20445;-75
2023/10/18 10:42:00;;;;;;;7.30;5.00;;;;;;;-145.14;100.00;70583.66;4971700;28;20434;-73
2023/10/18 10:44:30;;;;;;;6.57;4.93;;;;;;;-145.14;100.00;70583.66;4965148;28;20447;-73
2023/10/18 10:47:29;;;;;;;7.77;4.73;;;;;;;-145.14;100.00;70583.66;4963099;28;20488;-73
2023/10/18 10:49:59;;;;;;;6.57;4.60;;;;;;;-145.14;100.00;70583.66;4967748;28;20796;-74
2023/10/18 10:52:30;;;;;;;7.13;4.80;;;;;;;-145.14;100.00;70583.66;4964165;28;20439;-73
2023/10/18 10:55:22;;;;;;;5.43;3.70;;;;;;;-145.14;100.00;70583.66;4967531;28;20445;-73
2023/10/18 10:57:49;;;;;;;6.30;4.23;;;;;;;-145.14;100.00;70583.66;4969990;28;20435;-73
2023/10/18 11:00:22;;;;;;;7.00;4.37;;;;;;;-145.14;100.00;70583.66;4968208;28;20473;-74
2023/10/18 11:02:53;;;;;;;7.43;4.97;;;;;;;-145.14;100.00;70583.66;4967117;28;20785;-73
2023/10/18 11:05:24;;;;;;;7.60;4.63;;;;;;;-145.14;100.00;70583.66;4964073;28;20814;-73
2023/10/18 11:07:51;;;;;;;6.97;4.87;;;;;;;-145.14;100.00;70583.66;4964738;28;20465;-74
2023/10/18 11:10:17;;;;;;;8.40;4.40;;;;;;;-145.14;100.00;70583.66;4967034;28;20441;-74
2023/10/18 11:12:45;;;;;;;6.60;4.70;;;;;;;-145.14;100.00;70583.66;4967168;28;20546;-74
2023/10/18 11:15:16;;;;;;;6.57;4.87;;;;;;;-145.14;100.00;70583.66;4968773;28;20512;-73
2023/10/18 11:17:48;;;;;;;6.40;4.17;;;;;;;-145.14;100.00;70583.66;4967278;28;20425;-75
2023/10/18 11:20:19;;;;;;;7.93;4.77;;;;;;;-145.14;100.00;70583.66;4967595;28;20942;-73
2023/10/18 11:22:47;;;;;;;6.60;4.83;;;;;;;-145.14;100.00;70583.66;4967424;28;20462;-73
2023/10/18 11:25:19;;;;;;;8.57;4.67;;;;;;;-145.14;100.00;70583.66;4967770;28;20806;-72
2023/10/18 11:27:45;;;;;;;7.30;5.40;;;;;;;-145.14;100.00;70583.66;4966645;28;20526;-74
2023/10/18 11:30:22;;;;;;;8.20;5.00;;;;;;;-145.14;100.00;70583.66;4965523;28;20540;-74
2023/10/18 11:32:54;;;;;;;8.30;5.80;;;;;;;-145.14;100.00;70583.66;4967523;28;20201;-73
2023/10/18 11:35:38;;;;;;;8.10;5.53;;;;;;;-145.14;100.00;70583.66;4971857;28;20446;-73
2023/10/18 11:38:05;;;;;;;6.30;4.40;;;;;;;-145.14;100.00;70583.66;4968306;28;20424;-73
2023/10/18 11:40:32;;;;;;;8.00;5.60;;;;;;;-145.14;100.00;70583.66;4970671;28;20427;-72
2023/10/18 11:43:08;;;;;;;7.70;5.90;;;;;;;-145.14;100.00;70583.66;4967407;28;20849;-73
2023/10/18 11:45:36;;;;;;;6.57;4.80;;;;;;;-145.14;100.00;70583.66;4962270;28;20497;-73
2023/10/18 11:48:02;;;;;;;6.30;5.03;;;;;;;-145.14;100.00;70583.66;4967990;28;20435;-73
2023/10/18 11:50:41;;;;;;;8.53;5.30;;;;;;;-145.14;100.00;70583.66;4965069;28;20534;-72
2023/10/18 11:53:12;;;;;;;8.40;4.97;;;;;;;-145.14;100.00;70583.66;4968987;28;20476;-72
2023/10/18 11:55:58;;;;;;;5.77;4.40;;;;;;;-145.14;100.00;70583.66;4959826;28;20514;-73
2023/10/18 11:58:25;;;;;;;8.80;5.33;;;;;;;-145.14;100.00;70583.66;4969231;28;20501;-74
2023/10/18 12:00:57;;;;;;;7.20;4.93;;;;;;;-145.14;100.00;70583.66;4970281;28;20517;-73
2023/10/18 12:03:28;;;;;;;13.17;5.10;;;;;;;-145.14;100.00;70583.66;4962922;28;20867;-73
2023/10/18 12:05:55;;;;;;;6.23;4.40;;;;;;;-145.14;100.00;70583.66;4969575;28;20448;-72
2023/10/18 12:08:23;;;;;;;7.60;5.10;;;;;;;-145.14;100.00;70583.66;4969639;28;20949;-73
2023/10/18 12:10:49;;;;;;;7.27;4.57;;;;;;;-145.14;100.00;70583.66;4967618;28;20978;-74
2023/10/18 12:13:17;;;;;;;7.40;4.80;;;;;;;-145.14;100.00;70583.66;4969471;28;20464;-73
2023/10/18 12:15:42;;;;;;;7.13;4.60;;;;;;;-145.14;100.00;70583.66;4965081;28;20476;-75
2023/10/18 12:18:09;;;;;;;7.23;4.03;;;;;;;-145.14;100.00;70583.66;4971524;28;20488;-74
2023/10/18 12:20:36;;;;;;;5.50;4.10;;;;;;;-145.14;100.00;70583.66;4962559;28;20202;-73
2023/10/18 12:23:13;;;;;;;7.90;4.73;;;;;;;-145.14;100.00;70583.66;4967642;28;20525;-73
2023/10/18 12:25:44;;;;;;;7.60;4.70;;;;;;;-145.14;100.00;70583.66;4962847;28;20824;-73
2023/10/18 12:28:14;;;;;;;10.10;5.23;;;;;;;-145.14;100.00;70583.66;4981304;28;21041;-73
2023/10/18 12:30:41;;;;;;;7.30;5.07;;;;;;;-145.14;100.00;70583.66;4966357;28;20422;-73
2023/10/18 12:33:14;;;;;;;5.97;4.50;;;;;;;-145.14;100.00;70583.66;4967788;28;21045;-74